Time;durP1;ratioP1;P1;durP2;ratioP2;P2;SDS_P1;SDS_P2;PMS_P1;PMS_P2;Temp;Humidity;BMP_temperature;BMP_pressure;BME280_temperature;BME280_humidity;BME280_pressure;Samples;Min_cycle;Max_cycle;Signal;HPM_P1;HPM_P2
2023/07/22 00:01:02;;;;;;;9.05;6.03;;;;;;;;;;5115243;28;20044;-81
2023/07/22 00:03:29;;;;;;;6.93;5.28;;;;;;;;;;5114925;28;20093;-81
2023/07/22 00:06:06;;;;;;;6.03;5.18;;;;;;;;;;5115258;28;20051;-81
2023/07/22 00:08:35;;;;;;;5.78;4.70;;;;;;;;;;5114560;28;20055;-82
2023/07/22 00:11:02;;;;;;;6.07;5.57;;;;;;;;;;5114110;28;20557;-81
2023/07/22 00:13:29;;;;;;;7.20;5.40;;;;;;;;;;5113846;28;20470;-81
2023/07/22 00:15:59;;;;;;;6.68;4.63;;;;;;;;;;5115453;28;20056;-82
2023/07/22 00:18:27;;;;;;;6.22;5.72;;;;;;;;;;5114990;28;20044;-82
2023/07/22 00:20:54;;;;;;;9.00;5.90;;;;;;;;;;5114044;28;20097;-82
2023/07/22 00:23:22;;;;;;;5.88;5.35;;;;;;;;;;5114193;28;20104;-81
2023/07/22 00:25:49;;;;;;;7.10;6.20;;;;;;;;;;5113199;28;20051;-82
2023/07/22 00:28:18;;;;;;;8.07;6.10;;;;;;;;;;5115179;28;20055;-82
2023/07/22 00:30:45;;;;;;;6.57;6.00;;;;;;;;;;5114776;28;20055;-81
2023/07/22 00:33:13;;;;;;;9.38;6.30;;;;;;;;;;5113647;28;20044;-80
2023/07/22 00:35:41;;;;;;;8.05;5.55;;;;;;;;;;5112499;28;20052;-81
2023/07/22 00:38:09;;;;;;;6.97;6.03;;;;;;;;;;5112898;28;20048;-81
2023/07/22 00:40:37;;;;;;;6.57;5.95;;;;;;;;;;5114265;28;20044;-81
2023/07/22 00:43:07;;;;;;;6.32;5.38;;;;;;;;;;5113636;28;20046;-80
2023/07/22 00:45:34;;;;;;;5.78;5.38;;;;;;;;;;5112773;28;20071;-81
2023/07/22 00:48:02;;;;;;;7.03;6.15;;;;;;;;;;5112119;28;20048;-81
2023/07/22 00:50:29;;;;;;;5.75;5.00;;;;;;;;;;5114002;28;20130;-81
2023/07/22 00:52:56;;;;;;;5.18;4.80;;;;;;;;;;5112154;28;20048;-82
2023/07/22 00:55:24;;;;;;;5.57;5.18;;;;;;;;;;5112554;28;20048;-81
2023/07/22 00:57:51;;;;;;;5.70;5.20;;;;;;;;;;5111953;28;20043;-81
2023/07/22 01:00:18;;;;;;;5.20;4.68;;;;;;;;;;5111980;28;20097;-80
2023/07/22 01:02:45;;;;;;;6.30;5.25;;;;;;;;;;5112182;28;20112;-81
2023/07/22 01:05:13;;;;;;;5.22;4.78;;;;;;;;;;5113602;27;20067;-81
2023/07/22 01:07:41;;;;;;;7.95;5.22;;;;;;;;;;5113915;28;20052;-81
2023/07/22 01:10:08;;;;;;;10.35;5.53;;;;;;;;;;5113724;28;20054;-82
2023/07/22 01:12:36;;;;;;;7.70;5.20;;;;;;;;;;5112400;28;20058;-82
2023/07/22 01:15:07;;;;;;;5.38;4.53;;;;;;;;;;5118276;28;20112;-83
2023/07/22 01:17:35;;;;;;;5.55;5.05;;;;;;;;;;5116294;28;20044;-82
2023/07/22 01:20:03;;;;;;;6.68;4.82;;;;;;;;;;5116324;28;20040;-83
2023/07/22 01:22:30;;;;;;;6.00;5.00;;;;;;;;;;5115930;28;20040;-82
2023/07/22 01:24:58;;;;;;;8.60;5.20;;;;;;;;;;5116413;28;20043;-82
2023/07/22 01:27:26;;;;;;;5.45;4.90;;;;;;;;;;5115966;27;20069;-83
2023/07/22 01:29:53;;;;;;;5.05;4.60;;;;;;;;;;5116400;28;20044;-82
2023/07/22 01:32:21;;;;;;;5.47;4.95;;;;;;;;;;5117465;28;20055;-81
2023/07/22 01:34:48;;;;;;;5.10;4.60;;;;;;;;;;5118212;28;20058;-82
2023/07/22 01:37:15;;;;;;;5.35;4.82;;;;;;;;;;5117376;28;20055;-82
2023/07/22 01:39:43;;;;;;;5.18;4.82;;;;;;;;;;5117572;28;20040;-80
2023/07/22 01:42:10;;;;;;;9.80;4.97;;;;;;;;;;5116353;28;20196;-81
2023/07/22 01:44:37;;;;;;;7.57;5.13;;;;;;;;;;5118105;28;20491;-82
2023/07/22 01:47:04;;;;;;;6.15;4.80;;;;;;;;;;5116310;28;20044;-81
2023/07/22 01:49:34;;;;;;;5.85;5.25;;;;;;;;;;5117526;28;20044;-81
2023/07/22 01:52:01;;;;;;;5.30;4.75;;;;;;;;;;5117184;28;20058;-80
2023/07/22 01:54:28;;;;;;;6.70;5.25;;;;;;;;;;5115392;28;20051;-81
2023/07/22 01:56:55;;;;;;;5.95;4.93;;;;;;;;;;5116829;28;20522;-81
2023/07/22 01:59:22;;;;;;;8.32;5.20;;;;;;;;;;5115469;28;20047;-81
2023/07/22 02:01:50;;;;;;;5.57;5.07;;;;;;;;;;5115379;28;20412;-81
2023/07/22 02:04:17;;;;;;;5.25;4.82;;;;;;;;;;5114894;28;20082;-81
2023/07/22 02:06:44;;;;;;;5.60;5.03;;;;;;;;;;5116194;28;20067;-81
2023/07/22 02:09:13;;;;;;;6.00;5.10;;;;;;;;;;5114240;28;20055;-81
2023/07/22 02:11:40;;;;;;;6.22;5.30;;;;;;;;;;5115503;28;20048;-81
2023/07/22 02:14:08;;;;;;;5.70;5.20;;;;;;;;;;5114326;28;20055;-81
2023/07/22 02:16:36;;;;;;;6.68;5.35;;;;;;;;;;5115752;28;20043;-80
2023/07/22 02:19:04;;;;;;;9.23;6.03;;;;;;;;;;5115318;28;20050;-81
2023/07/22 02:21:31;;;;;;;6.47;5.70;;;;;;;;;;5115555;28;20153;-80
2023/07/22 02:23:58;;;;;;;6.65;6.15;;;;;;;;;;5114245;28;20046;-80
2023/07/22 02:26:25;;;;;;;7.03;6.43;;;;;;;;;;5113756;28;20101;-80
2023/07/22 02:28:54;;;;;;;5.78;5.25;;;;;;;;;;5113934;28;20047;-81
2023/07/22 02:31:25;;;;;;;6.97;5.38;;;;;;;;;;5114998;27;20054;-80
2023/07/22 02:33:53;;;;;;;12.75;6.15;;;;;;;;;;5113721;28;20101;-79
2023/07/22 02:36:20;;;;;;;10.05;6.35;;;;;;;;;;5115244;28;20058;-80
2023/07/22 02:38:47;;;;;;;8.55;6.30;;;;;;;;;;5113981;28;20093;-81
2023/07/22 02:41:14;;;;;;;6.63;5.93;;;;;;;;;;5115184;28;20559;-80
2023/07/22 02:43:42;;;;;;;6.22;5.72;;;;;;;;;;5115090;27;20071;-81
2023/07/22 02:46:10;;;;;;;6.35;5.85;;;;;;;;;;5114699;28;20097;-80
2023/07/22 02:48:37;;;;;;;5.75;5.05;;;;;;;;;;5114432;28;20058;-80
2023/07/22 02:51:05;;;;;;;7.63;6.07;;;;;;;;;;5117952;28;20047;-82
2023/07/22 02:53:32;;;;;;;8.73;5.97;;;;;;;;;;5119786;28;20051;-82
2023/07/22 02:56:00;;;;;;;6.28;5.68;;;;;;;;;;5117910;28;20056;-82
2023/07/22 02:58:28;;;;;;;7.53;5.68;;;;;;;;;;5117409;28;20044;-81
2023/07/22 03:00:57;;;;;;;6.18;5.65;;;;;;;;;;5116445;28;20050;-80
2023/07/22 03:03:25;;;;;;;6.63;5.85;;;;;;;;;;5116670;28;20040;-81
2023/07/22 03:05:52;;;;;;;5.88;5.38;;;;;;;;;;5117147;28;20047;-81
2023/07/22 03:08:19;;;;;;;6.20;5.65;;;;;;;;;;5116178;28;20104;-81
2023/07/22 03:10:48;;;;;;;6.55;5.97;;;;;;;;;;5115998;28;20539;-81
2023/07/22 03:13:16;;;;;;;9.65;5.75;;;;;;;;;;5116791;28;20044;-80
2023/07/22 03:15:43;;;;;;;8.18;6.07;;;;;;;;;;5115871;28;20051;-80
2023/07/22 03:18:11;;;;;;;7.47;5.75;;;;;;;;;;5114571;28;20055;-80
2023/07/22 03:20:39;;;;;;;7.03;6.35;;;;;;;;;;5114426;28;20077;-81
2023/07/22 03:23:06;;;;;;;12.07;6.35;;;;;;;;;;5115658;28;20051;-80
2023/07/22 03:25:35;;;;;;;8.82;6.88;;;;;;;;;;5115167;28;20044;-81
2023/07/22 03:28:03;;;;;;;9.82;5.88;;;;;;;;;;5113416;28;20050;-81
2023/07/22 03:30:31;;;;;;;6.22;5.60;;;;;;;;;;5113797;28;20544;-81
2023/07/22 03:32:58;;;;;;;7.85;7.15;;;;;;;;;;5114859;28;20469;-81
2023/07/22 03:35:26;;;;;;;11.73;6.88;;;;;;;;;;5113627;28;20048;-81
2023/07/22 03:37:53;;;;;;;9.65;8.50;;;;;;;;;;5114040;28;20495;-81
2023/07/22 03:40:21;;;;;;;8.00;7.20;;;;;;;;;;5114449;28;20043;-80
2023/07/22 03:42:51;;;;;;;7.70;7.10;;;;;;;;;;5113395;28;20503;-80
2023/07/22 03:45:19;;;;;;;7.60;6.82;;;;;;;;;;5112271;28;20047;-80
2023/07/22 03:47:47;;;;;;;10.95;6.95;;;;;;;;;;5112421;28;20044;-80
2023/07/22 03:50:15;;;;;;;7.55;6.65;;;;;;;;;;5112444;28;20050;-80
2023/07/22 03:52:42;;;;;;;9.48;7.35;;;;;;;;;;5112535;28;20091;-81
2023/07/22 03:55:10;;;;;;;14.73;9.13;;;;;;;;;;5111454;28;20055;-79
2023/07/22 03:57:37;;;;;;;9.80;8.73;;;;;;;;;;5111900;28;20055;-80
2023/07/22 04:00:05;;;;;;;14.65;9.77;;;;;;;;;;5112029;28;20050;-80
2023/07/22 04:02:32;;;;;;;10.65;9.32;;;;;;;;;;5112234;28;20048;-80
2023/07/22 04:05:00;;;;;;;14.55;12.35;;;;;;;;;;5112078;28;20427;-79
2023/07/22 04:07:27;;;;;;;25.40;14.90;;;;;;;;;;5115261;28;20052;-81
2023/07/22 04:09:54;;;;;;;23.27;16.42;;;;;;;;;;5117375;28;20069;-81
2023/07/22 04:12:21;;;;;;;22.15;16.63;;;;;;;;;;5118689;28;20495;-81
2023/07/22 04:14:49;;;;;;;15.80;13.23;;;;;;;;;;5117051;28;20051;-81
2023/07/22 04:17:16;;;;;;;20.27;15.07;;;;;;;;;;5116679;28;20093;-81
2023/07/22 04:19:43;;;;;;;17.95;14.13;;;;;;;;;;5116114;28;20039;-81
2023/07/22 04:22:11;;;;;;;15.35;13.75;;;;;;;;;;5116661;28;20047;-81
2023/07/22 04:24:39;;;;;;;13.23;11.82;;;;;;;;;;5116305;28;20046;-79
2023/07/22 04:27:06;;;;;;;19.63;15.00;;;;;;;;;;5117260;28;20439;-81
2023/07/22 04:29:33;;;;;;;17.77;12.65;;;;;;;;;;5115967;28;20105;-81
2023/07/22 04:32:01;;;;;;;25.77;15.43;;;;;;;;;;5116909;28;20097;-80
2023/07/22 04:34:29;;;;;;;17.17;13.10;;;;;;;;;;5116311;28;20456;-81
2023/07/22 04:36:56;;;;;;;33.35;18.13;;;;;;;;;;5114026;28;20107;-81
2023/07/22 04:39:24;;;;;;;24.73;15.60;;;;;;;;;;5114673;28;20072;-81
2023/07/22 04:41:52;;;;;;;21.75;16.13;;;;;;;;;;5114703;28;20044;-80
2023/07/22 04:44:20;;;;;;;19.55;14.75;;;;;;;;;;5114335;28;20044;-81
2023/07/22 04:46:47;;;;;;;17.10;14.60;;;;;;;;;;5115379;28;20495;-81
2023/07/22 04:49:17;;;;;;;33.28;19.27;;;;;;;;;;5115402;28;20127;-81
2023/07/22 04:51:46;;;;;;;28.65;18.27;;;;;;;;;;5115696;28;20048;-81
2023/07/22 04:54:14;;;;;;;31.20;19.73;;;;;;;;;;5115017;28;20108;-81
2023/07/22 04:56:42;;;;;;;21.35;16.48;;;;;;;;;;5113754;28;20434;-81
2023/07/22 04:59:10;;;;;;;18.20;15.18;;;;;;;;;;5114946;28;20059;-81
2023/07/22 05:01:37;;;;;;;26.75;17.20;;;;;;;;;;5114876;28;20123;-80
2023/07/22 05:04:06;;;;;;;23.70;16.17;;;;;;;;;;5114277;28;20081;-81
2023/07/22 05:06:33;;;;;;;24.98;17.17;;;;;;;;;;5116957;28;20415;-80
2023/07/22 05:09:00;;;;;;;38.63;20.55;;;;;;;;;;5118670;28;20466;-81
2023/07/22 05:11:28;;;;;;;31.45;20.88;;;;;;;;;;5117183;28;20160;-81
2023/07/22 05:13:55;;;;;;;38.58;23.30;;;;;;;;;;5118476;28;20047;-81
2023/07/22 05:16:23;;;;;;;42.42;24.55;;;;;;;;;;5118179;28;20044;-80
2023/07/22 05:18:50;;;;;;;37.60;23.60;;;;;;;;;;5117642;28;20127;-81
2023/07/22 05:21:17;;;;;;;53.28;31.17;;;;;;;;;;5116417;28;20105;-81
2023/07/22 05:23:45;;;;;;;45.30;28.27;;;;;;;;;;5117453;28;20044;-81
2023/07/22 05:26:12;;;;;;;44.58;26.83;;;;;;;;;;5115737;28;20392;-81
2023/07/22 05:28:39;;;;;;;33.03;24.10;;;;;;;;;;5116355;28;20052;-80
2023/07/22 05:31:06;;;;;;;28.52;21.48;;;;;;;;;;5115563;28;20064;-80
2023/07/22 05:33:34;;;;;;;16.33;14.65;;;;;;;;;;5116025;28;20043;-81
2023/07/22 05:36:01;;;;;;;13.32;10.60;;;;;;;;;;5115578;28;20048;-81
2023/07/22 05:38:28;;;;;;;12.60;10.07;;;;;;;;;;5115711;28;20494;-81
2023/07/22 05:40:55;;;;;;;12.20;7.07;;;;;;;;;;5114872;28;20044;-81
2023/07/22 05:43:22;;;;;;;8.77;5.30;;;;;;;;;;5115289;28;20044;-81
2023/07/22 05:45:50;;;;;;;5.30;4.57;;;;;;;;;;5115488;28;20048;-81
2023/07/22 05:48:17;;;;;;;11.68;3.95;;;;;;;;;;5115265;28;20093;-82
2023/07/22 05:50:44;;;;;;;9.02;4.30;;;;;;;;;;5115125;28;20469;-82
2023/07/22 05:53:13;;;;;;;17.38;4.55;;;;;;;;;;5115129;28;20104;-82
2023/07/22 05:55:40;;;;;;;10.35;4.43;;;;;;;;;;5115105;28;20116;-82
2023/07/22 05:58:15;;;;;;;9.70;3.90;;;;;;;;;;5114212;28;20490;-82
2023/07/22 06:00:42;;;;;;;20.35;4.07;;;;;;;;;;5116395;28;20488;-84
2023/07/22 06:03:10;;;;;;;11.45;3.83;;;;;;;;;;5119976;28;20048;-83
2023/07/22 06:05:37;;;;;;;15.40;3.75;;;;;;;;;;5118333;28;20047;-82
2023/07/22 06:08:05;;;;;;;17.45;3.95;;;;;;;;;;5118561;28;20092;-83
2023/07/22 06:10:32;;;;;;;13.75;4.07;;;;;;;;;;5116272;28;20047;-81
2023/07/22 06:12:59;;;;;;;10.63;4.25;;;;;;;;;;5116886;28;20062;-84
2023/07/22 06:15:27;;;;;;;7.90;4.32;;;;;;;;;;5117209;28;20051;-83
2023/07/22 06:17:54;;;;;;;7.65;4.95;;;;;;;;;;5117100;28;20074;-83
2023/07/22 06:20:21;;;;;;;8.07;5.05;;;;;;;;;;5114761;28;20067;-84
2023/07/22 06:22:49;;;;;;;6.13;5.20;;;;;;;;;;5115664;28;20100;-83
2023/07/22 06:25:16;;;;;;;6.20;4.97;;;;;;;;;;5116651;28;20051;-84
2023/07/22 06:27:44;;;;;;;5.15;4.45;;;;;;;;;;5116455;28;20500;-83
2023/07/22 06:30:11;;;;;;;9.05;4.15;;;;;;;;;;5116463;28;20480;-83
2023/07/22 06:32:39;;;;;;;4.55;4.10;;;;;;;;;;5114976;28;20056;-84
2023/07/22 06:35:06;;;;;;;4.35;3.65;;;;;;;;;;5115436;28;20051;-84
2023/07/22 06:37:34;;;;;;;7.38;3.38;;;;;;;;;;5115656;28;20535;-84
2023/07/22 06:40:03;;;;;;;4.68;3.60;;;;;;;;;;5115541;28;20048;-84
2023/07/22 06:42:30;;;;;;;5.28;3.67;;;;;;;;;;5114533;28;20054;-83
2023/07/22 06:44:58;;;;;;;5.53;2.95;;;;;;;;;;5114422;28;20126;-85
2023/07/22 06:47:25;;;;;;;4.53;3.28;;;;;;;;;;5114125;28;20043;-84
2023/07/22 06:49:52;;;;;;;3.33;3.05;;;;;;;;;;5113771;28;20049;-83
2023/07/22 06:52:19;;;;;;;3.17;2.97;;;;;;;;;;5114440;28;20582;-82
2023/07/22 06:54:47;;;;;;;5.32;3.53;;;;;;;;;;5113254;28;20055;-82
2023/07/22 06:57:14;;;;;;;3.00;2.70;;;;;;;;;;5114380;27;20048;-82
2023/07/22 06:59:41;;;;;;;3.33;3.03;;;;;;;;;;5114834;28;20044;-82
2023/07/22 07:02:09;;;;;;;4.32;3.38;;;;;;;;;;5114506;28;20108;-82
2023/07/22 07:04:36;;;;;;;5.63;3.72;;;;;;;;;;5114594;28;20062;-82
2023/07/22 07:07:03;;;;;;;3.60;3.33;;;;;;;;;;5113611;28;20052;-81
2023/07/22 07:09:30;;;;;;;4.68;2.95;;;;;;;;;;5113588;28;20495;-81
2023/07/22 07:11:58;;;;;;;3.42;3.13;;;;;;;;;;5115045;28;20047;-81
2023/07/22 07:14:25;;;;;;;3.28;2.97;;;;;;;;;;5115100;28;20051;-82
2023/07/22 07:16:52;;;;;;;4.75;2.70;;;;;;;;;;5113355;28;20056;-81
2023/07/22 07:19:20;;;;;;;8.10;3.08;;;;;;;;;;5113036;28;20136;-82
2023/07/22 07:21:47;;;;;;;2.83;2.60;;;;;;;;;;5113928;28;20043;-81
2023/07/22 07:24:14;;;;;;;2.47;2.28;;;;;;;;;;5113808;28;20043;-81
2023/07/22 07:26:41;;;;;;;2.30;2.10;;;;;;;;;;5114613;28;20063;-79
2023/07/22 07:29:09;;;;;;;1.90;1.80;;;;;;;;;;5112789;28;20048;-81
2023/07/22 07:31:36;;;;;;;3.30;2.20;;;;;;;;;;5115025;28;20090;-82
2023/07/22 07:34:03;;;;;;;3.92;2.22;;;;;;;;;;5112445;28;20048;-81
2023/07/22 07:36:31;;;;;;;2.78;2.58;;;;;;;;;;5113610;28;20399;-81
2023/07/22 07:38:59;;;;;;;2.67;2.47;;;;;;;;;;5119393;28;20127;-83
2023/07/22 07:41:26;;;;;;;2.17;2.08;;;;;;;;;;5117771;28;20094;-82
2023/07/22 07:43:53;;;;;;;2.65;2.20;;;;;;;;;;5116270;28;20101;-82
2023/07/22 07:46:25;;;;;;;2.55;1.80;;;;;;;;;;5118008;28;20487;-82
2023/07/22 07:48:56;;;;;;;1.98;1.88;;;;;;;;;;5116826;28;20043;-82
2023/07/22 07:51:26;;;;;;;2.90;1.70;;;;;;;;;;5116864;28;20100;-81
2023/07/22 07:53:54;;;;;;;2.05;1.90;;;;;;;;;;5114494;28;20048;-82
2023/07/22 07:56:21;;;;;;;2.05;1.95;;;;;;;;;;5116125;28;20058;-80
2023/07/22 07:58:50;;;;;;;2.33;2.00;;;;;;;;;;5114647;28;20501;-81
2023/07/22 08:01:17;;;;;;;2.10;2.00;;;;;;;;;;5115461;28;20231;-81
2023/07/22 08:03:45;;;;;;;1.95;1.83;;;;;;;;;;5113673;28;20044;-81
2023/07/22 08:06:13;;;;;;;4.72;2.20;;;;;;;;;;5114348;28;20518;-81
2023/07/22 08:08:42;;;;;;;3.47;2.08;;;;;;;;;;5114662;28;20052;-80
2023/07/22 08:11:16;;;;;;;2.88;1.98;;;;;;;;;;5114840;28;20138;-83
2023/07/22 08:13:44;;;;;;;4.10;2.40;;;;;;;;;;5115006;28;20048;-80
2023/07/22 08:16:12;;;;;;;2.78;2.10;;;;;;;;;;5113424;28;20503;-81
2023/07/22 08:18:40;;;;;;;2.13;2.03;;;;;;;;;;5113191;28;20124;-81
2023/07/22 08:21:07;;;;;;;4.47;2.10;;;;;;;;;;5112769;28;20068;-79
2023/07/22 08:23:36;;;;;;;2.75;2.00;;;;;;;;;;5112959;28;20048;-81
2023/07/22 08:26:05;;;;;;;2.00;1.90;;;;;;;;;;5112479;28;20059;-83
2023/07/22 08:28:33;;;;;;;2.65;2.20;;;;;;;;;;5114426;28;20047;-82
2023/07/22 08:31:00;;;;;;;2.58;2.20;;;;;;;;;;5113973;28;20051;-80
2023/07/22 08:33:28;;;;;;;2.50;2.30;;;;;;;;;;5114664;28;20079;-80
2023/07/22 08:36:08;;;;;;;2.85;2.30;;;;;;;;;;5113515;28;20060;-81
2023/07/22 08:38:35;;;;;;;4.93;2.60;;;;;;;;;;5114896;28;20100;-80
2023/07/22 08:41:02;;;;;;;3.20;2.10;;;;;;;;;;5116165;28;20077;-81
2023/07/22 08:43:30;;;;;;;5.45;2.50;;;;;;;;;;5117639;28;20201;-81
2023/07/22 08:46:00;;;;;;;3.92;2.03;;;;;;;;;;5117502;28;20051;-80
2023/07/22 08:48:29;;;;;;;2.22;2.03;;;;;;;;;;5117553;28;20040;-79
2023/07/22 08:51:04;;;;;;;2.08;1.98;;;;;;;;;;5118170;28;20043;-79
2023/07/22 08:53:35;;;;;;;2.22;2.13;;;;;;;;;;5118100;27;20047;-79
2023/07/22 08:56:02;;;;;;;2.83;2.03;;;;;;;;;;5115867;28;20055;-78
2023/07/22 08:58:30;;;;;;;2.38;2.13;;;;;;;;;;5119230;28;20047;-80
2023/07/22 09:00:57;;;;;;;4.95;1.83;;;;;;;;;;5122520;28;20047;-83
2023/07/22 09:03:25;;;;;;;3.45;2.03;;;;;;;;;;5124177;28;20426;-80
2023/07/22 09:05:53;;;;;;;2.30;2.10;;;;;;;;;;5119455;28;20499;-81
2023/07/22 09:08:20;;;;;;;2.17;1.85;;;;;;;;;;5119569;28;20048;-82
2023/07/22 09:10:48;;;;;;;2.40;2.17;;;;;;;;;;5118358;28;20058;-81
2023/07/22 09:13:16;;;;;;;2.58;2.00;;;;;;;;;;5118805;28;20047;-82
2023/07/22 09:15:43;;;;;;;2.78;2.08;;;;;;;;;;5120461;28;20054;-80
2023/07/22 09:18:11;;;;;;;2.42;2.00;;;;;;;;;;5119197;28;20052;-82
2023/07/22 09:20:38;;;;;;;3.92;3.63;;;;;;;;;;5119007;28;20108;-81
2023/07/22 09:23:06;;;;;;;2.30;2.20;;;;;;;;;;5119792;27;20040;-82
2023/07/22 09:25:41;;;;;;;2.80;2.65;;;;;;;;;;5118002;28;20096;-85
2023/07/22 09:28:09;;;;;;;2.78;2.55;;;;;;;;;;5118639;28;20484;-82
2023/07/22 09:30:38;;;;;;;1.80;1.70;;;;;;;;;;5119278;28;20048;-81
2023/07/22 09:33:07;;;;;;;1.92;1.70;;;;;;;;;;5117691;28;20052;-80
2023/07/22 09:35:45;;;;;;;1.83;1.73;;;;;;;;;;5118202;27;20078;-82
2023/07/22 09:38:12;;;;;;;2.17;1.70;;;;;;;;;;5119284;28;20048;-81
2023/07/22 09:40:43;;;;;;;2.40;1.95;;;;;;;;;;5117445;28;20410;-83
2023/07/22 09:43:14;;;;;;;2.03;1.90;;;;;;;;;;5117042;28;20043;-80
2023/07/22 09:45:41;;;;;;;2.85;2.70;;;;;;;;;;5117891;28;20469;-82
2023/07/22 09:48:10;;;;;;;2.50;2.38;;;;;;;;;;5117410;28;20048;-83
2023/07/22 09:50:38;;;;;;;2.15;2.05;;;;;;;;;;5119080;27;20151;-82
2023/07/22 09:53:05;;;;;;;2.58;2.03;;;;;;;;;;5117890;28;20240;-81
2023/07/22 09:55:33;;;;;;;2.28;2.17;;;;;;;;;;5118925;28;20104;-80
2023/07/22 09:58:11;;;;;;;2.42;2.20;;;;;;;;;;5118398;28;20051;-79
2023/07/22 10:00:38;;;;;;;4.97;2.20;;;;;;;;;;5118186;28;20044;-81
2023/07/22 10:03:11;;;;;;;2.30;2.10;;;;;;;;;;5116524;28;20050;-81
2023/07/22 10:05:41;;;;;;;5.28;2.15;;;;;;;;;;5116448;28;20054;-81
2023/07/22 10:08:09;;;;;;;3.53;2.22;;;;;;;;;;5119168;28;20047;-80
2023/07/22 10:10:38;;;;;;;2.28;2.17;;;;;;;;;;5116240;28;20557;-80
2023/07/22 10:13:06;;;;;;;2.88;2.30;;;;;;;;;;5115529;28;20051;-81
2023/07/22 10:15:34;;;;;;;6.88;2.58;;;;;;;;;;5117161;28;20309;-81
2023/07/22 10:18:05;;;;;;;15.35;3.30;;;;;;;;;;5117609;28;20529;-82
2023/07/22 10:20:36;;;;;;;2.90;2.10;;;;;;;;;;5115544;28;20047;-80
2023/07/22 10:23:04;;;;;;;2.95;2.10;;;;;;;;;;5115076;28;20527;-81
2023/07/22 10:25:32;;;;;;;2.38;2.28;;;;;;;;;;5115400;28;20047;-80
2023/07/22 10:27:59;;;;;;;2.38;2.28;;;;;;;;;;5115233;28;20052;-81
2023/07/22 10:30:27;;;;;;;3.45;2.10;;;;;;;;;;5117135;27;20052;-81
2023/07/22 10:32:54;;;;;;;3.20;2.72;;;;;;;;;;5115505;28;20059;-83
2023/07/22 10:35:24;;;;;;;2.88;2.67;;;;;;;;;;5115196;28;20047;-79
2023/07/22 10:37:53;;;;;;;7.45;3.20;;;;;;;;;;5115199;28;20513;-81
2023/07/22 10:40:30;;;;;;;6.97;2.97;;;;;;;;;;5115201;28;20047;-80
2023/07/22 10:43:07;;;;;;;2.45;2.25;;;;;;;;;;5116651;28;20112;-82
2023/07/22 10:45:39;;;;;;;2.40;2.20;;;;;;;;;;5116503;28;20051;-79
2023/07/22 10:48:07;;;;;;;4.38;2.65;;;;;;;;;;5114431;28;20043;-81
2023/07/22 10:50:46;;;;;;;2.60;2.40;;;;;;;;;;5118675;28;20100;-80
2023/07/22 10:53:34;;;;;;;2.63;2.50;;;;;;;;;;5118378;28;20047;-80
2023/07/22 10:56:07;;;;;;;2.70;2.55;;;;;;;;;;5117895;28;20051;-81
2023/07/22 10:58:55;;;;;;;2.47;2.28;;;;;;;;;;5117971;28;20077;-80
2023/07/22 11:01:26;;;;;;;2.88;2.65;;;;;;;;;;5116800;28;20520;-81
2023/07/22 11:04:03;;;;;;;8.25;2.63;;;;;;;;;;5115376;28;20050;-82
2023/07/22 11:06:30;;;;;;;2.83;2.60;;;;;;;;;;5114874;28;20563;-82
2023/07/22 11:08:57;;;;;;;2.88;2.30;;;;;;;;;;5115510;28;20043;-81
2023/07/22 11:11:35;;;;;;;3.13;2.30;;;;;;;;;;5115140;28;20044;-83
2023/07/22 11:14:15;;;;;;;2.95;2.75;;;;;;;;;;5116366;28;20055;-81
2023/07/22 11:16:44;;;;;;;2.50;2.20;;;;;;;;;;5114325;28;20053;-82
2023/07/22 11:19:14;;;;;;;2.70;2.50;;;;;;;;;;5114344;28;20054;-80
2023/07/22 11:21:41;;;;;;;3.05;2.75;;;;;;;;;;5114410;28;20488;-81
2023/07/22 11:24:09;;;;;;;3.15;2.85;;;;;;;;;;5113610;28;20047;-81
2023/07/22 11:26:37;;;;;;;3.60;2.83;;;;;;;;;;5113467;28;20172;-83
2023/07/22 11:29:05;;;;;;;2.75;2.60;;;;;;;;;;5115342;28;20048;-81
2023/07/22 11:31:33;;;;;;;2.90;2.58;;;;;;;;;;5113831;28;20100;-81
2023/07/22 11:34:00;;;;;;;3.00;2.70;;;;;;;;;;5114659;28;20499;-82
2023/07/22 11:36:28;;;;;;;4.97;2.65;;;;;;;;;;5113403;28;20510;-80
2023/07/22 11:39:05;;;;;;;3.22;2.90;;;;;;;;;;5114097;28;20109;-81
2023/07/22 11:41:33;;;;;;;2.63;2.42;;;;;;;;;;5112314;28;20048;-80
2023/07/22 11:44:00;;;;;;;3.10;2.60;;;;;;;;;;5114140;28;20100;-82
2023/07/22 11:46:28;;;;;;;3.15;2.88;;;;;;;;;;5114345;28;20040;-81
2023/07/22 11:48:56;;;;;;;2.80;2.60;;;;;;;;;;5113483;28;20048;-80
2023/07/22 11:51:24;;;;;;;3.63;2.42;;;;;;;;;;5113763;28;20047;-82
2023/07/22 11:53:52;;;;;;;2.38;2.28;;;;;;;;;;5113586;28;20047;-81
2023/07/22 11:56:24;;;;;;;4.70;2.53;;;;;;;;;;5113773;28;20055;-80
2023/07/22 11:58:55;;;;;;;3.03;2.80;;;;;;;;;;5114054;28;20051;-78
2023/07/22 12:01:22;;;;;;;2.60;2.50;;;;;;;;;;5114044;28;20093;-78
2023/07/22 12:03:55;;;;;;;6.32;2.55;;;;;;;;;;5113097;28;20039;-80
2023/07/22 12:06:25;;;;;;;6.43;2.78;;;;;;;;;;5112856;28;20043;-81
2023/07/22 12:08:53;;;;;;;3.10;2.90;;;;;;;;;;5112440;28;20039;-79
2023/07/22 12:11:21;;;;;;;2.88;2.67;;;;;;;;;;5113795;27;20443;-80
2023/07/22 12:13:50;;;;;;;3.05;2.72;;;;;;;;;;5112468;28;20048;-78
2023/07/22 12:16:23;;;;;;;2.53;2.33;;;;;;;;;;5112245;28;20132;-80
2023/07/22 12:18:55;;;;;;;4.05;2.97;;;;;;;;;;5113065;28;20522;-81
2023/07/22 12:21:22;;;;;;;5.03;3.00;;;;;;;;;;5112457;28;20052;-78
2023/07/22 12:23:50;;;;;;;3.00;2.80;;;;;;;;;;5112573;28;20092;-82
2023/07/22 12:26:17;;;;;;;2.45;2.25;;;;;;;;;;5113729;28;20047;-82
2023/07/22 12:28:44;;;;;;;3.28;3.08;;;;;;;;;;5119432;28;20069;-81
2023/07/22 12:31:11;;;;;;;2.78;2.33;;;;;;;;;;5117493;28;20047;-83
2023/07/22 12:33:39;;;;;;;3.47;2.80;;;;;;;;;;5118140;28;20059;-82
2023/07/22 12:36:06;;;;;;;2.95;2.63;;;;;;;;;;5117129;28;20077;-83
2023/07/22 12:38:33;;;;;;;2.78;2.58;;;;;;;;;;5115631;28;20563;-82
2023/07/22 12:41:01;;;;;;;3.25;2.17;;;;;;;;;;5116296;28;20055;-80
2023/07/22 12:43:29;;;;;;;3.25;2.58;;;;;;;;;;5115257;28;20480;-83
2023/07/22 12:45:56;;;;;;;3.63;2.78;;;;;;;;;;5116071;28;20044;-84
2023/07/22 12:48:26;;;;;;;2.88;2.70;;;;;;;;;;5114181;28;20044;-81
2023/07/22 12:50:53;;;;;;;2.58;2.35;;;;;;;;;;5113999;28;20085;-79
2023/07/22 12:53:21;;;;;;;2.70;2.50;;;;;;;;;;5112941;28;20047;-81
2023/07/22 12:55:48;;;;;;;2.67;2.40;;;;;;;;;;5112694;28;20043;-80
2023/07/22 12:58:15;;;;;;;3.55;2.60;;;;;;;;;;5113416;28;20495;-80
2023/07/22 13:00:42;;;;;;;2.17;2.08;;;;;;;;;;5114002;28;20104;-81
2023/07/22 13:03:10;;;;;;;3.20;2.65;;;;;;;;;;5112589;28;20059;-82
2023/07/22 13:05:37;;;;;;;3.40;2.80;;;;;;;;;;5114028;28;20068;-81
2023/07/22 13:08:04;;;;;;;2.63;2.30;;;;;;;;;;5114408;28;20487;-81
2023/07/22 13:10:34;;;;;;;2.55;2.35;;;;;;;;;;5113463;28;20116;-81
2023/07/22 13:13:01;;;;;;;4.15;2.72;;;;;;;;;;5112017;28;20450;-82
2023/07/22 13:15:28;;;;;;;4.40;2.63;;;;;;;;;;5113352;28;20047;-80
2023/07/22 13:17:55;;;;;;;3.78;2.63;;;;;;;;;;5112424;28;20052;-81
2023/07/22 13:20:23;;;;;;;2.50;2.30;;;;;;;;;;5111438;28;20051;-80
2023/07/22 13:22:50;;;;;;;2.70;2.50;;;;;;;;;;5111100;28;20461;-81
2023/07/22 13:25:18;;;;;;;2.97;2.50;;;;;;;;;;5112918;28;20047;-80
2023/07/22 13:27:45;;;;;;;3.53;2.55;;;;;;;;;;5114343;28;20130;-80
2023/07/22 13:30:13;;;;;;;5.45;3.22;;;;;;;;;;5114943;28;20134;-79
2023/07/22 13:32:40;;;;;;;2.55;2.35;;;;;;;;;;5114963;28;20044;-80
2023/07/22 13:35:09;;;;;;;3.45;2.60;;;;;;;;;;5115027;28;20043;-80
2023/07/22 13:37:36;;;;;;;3.58;2.70;;;;;;;;;;5114897;28;20043;-80
2023/07/22 13:40:09;;;;;;;3.88;2.88;;;;;;;;;;5115889;28;20048;-80
2023/07/22 13:42:37;;;;;;;2.75;2.55;;;;;;;;;;5114436;28;20487;-81
2023/07/22 13:45:05;;;;;;;3.33;2.90;;;;;;;;;;5114479;28;20052;-83
2023/07/22 13:47:33;;;;;;;3.30;2.60;;;;;;;;;;5114165;28;20055;-80
2023/07/22 13:50:00;;;;;;;4.30;2.65;;;;;;;;;;5114536;28;20075;-81
2023/07/22 13:52:27;;;;;;;4.28;2.75;;;;;;;;;;5114871;28;20071;-80
2023/07/22 13:54:55;;;;;;;2.80;2.20;;;;;;;;;;5115489;28;20047;-81
2023/07/22 13:57:22;;;;;;;6.25;3.50;;;;;;;;;;5114134;28;20461;-80
2023/07/22 13:59:49;;;;;;;2.72;2.50;;;;;;;;;;5114063;28;20051;-79
2023/07/22 14:02:16;;;;;;;3.63;2.60;;;;;;;;;;5114027;28;20097;-80
2023/07/22 14:04:44;;;;;;;5.03;2.90;;;;;;;;;;5121632;28;20486;-81
2023/07/22 14:07:11;;;;;;;2.90;2.70;;;;;;;;;;5123731;28;20040;-82
2023/07/22 14:09:38;;;;;;;3.38;2.65;;;;;;;;;;5122183;28;20127;-80
2023/07/22 14:12:06;;;;;;;3.17;2.70;;;;;;;;;;5121658;28;20078;-82
2023/07/22 14:14:33;;;;;;;7.30;3.40;;;;;;;;;;5120912;28;20051;-84
2023/07/22 14:17:00;;;;;;;10.40;3.58;;;;;;;;;;5118101;28;20112;-83
2023/07/22 14:19:28;;;;;;;21.05;4.65;;;;;;;;;;5119354;28;20067;-81
2023/07/22 14:21:55;;;;;;;3.63;2.47;;;;;;;;;;5118660;28;20043;-83
2023/07/22 14:24:22;;;;;;;5.28;2.50;;;;;;;;;;5117292;28;20089;-82
2023/07/22 14:26:49;;;;;;;2.67;2.47;;;;;;;;;;5117159;28;20047;-82
2023/07/22 14:29:17;;;;;;;5.10;2.63;;;;;;;;;;5117898;28;20419;-81
2023/07/22 14:31:44;;;;;;;3.85;2.30;;;;;;;;;;5118342;27;20097;-81
2023/07/22 14:34:11;;;;;;;2.47;2.30;;;;;;;;;;5117663;28;20059;-82
2023/07/22 14:36:38;;;;;;;3.03;2.70;;;;;;;;;;5116874;28;20132;-82
2023/07/22 14:39:06;;;;;;;4.47;2.58;;;;;;;;;;5115634;28;20051;-82
2023/07/22 14:41:33;;;;;;;6.03;2.65;;;;;;;;;;5116774;28;20079;-80
2023/07/22 14:44:00;;;;;;;3.20;2.50;;;;;;;;;;5116781;28;20419;-82